TGW651 VTSP-WSSS
Flight info
| Callsign | TGW651 |
|---|---|
| Flight time | 1h 33m |
| Altitude | 37000 |
| Route | REBED1A REBED B579 VPL Y503 RINBA Y507 MAKNA Y511 TOPOR A464 ARAMA DCT TEBUN TEBUN1A |
| Aircraft | A320/M-SDE3FGHIRWY/LB1 |
Departure
| Time | 2026-05-05 08:01 |
|---|---|
| Airport | Phuket International Airport (VTSP) |
Arrival
| Time | 2026-05-05 09:34 |
|---|---|
| Airport | Singapore Changi Airport (WSSS) |
| Time | Latitude | Longitude | Altitude | Speed | Heading |
|---|---|---|---|---|---|
| 2026-05-05 07:38 | 8.10400 | 98.30421 | 27 ft | 0 kts | 105° |
| 2026-05-05 07:51 | 8.10405 | 98.30400 | 48 ft | 4 kts | 105° |
| 2026-05-05 07:52 | 8.10412 | 98.30374 | 27 ft | 4 kts | 105° |
| 2026-05-05 07:52 | 8.10419 | 98.30353 | 26 ft | 4 kts | 120° |
| 2026-05-05 07:52 | 8.10435 | 98.30336 | 26 ft | 4 kts | 168° |
| 2026-05-05 07:52 | 8.10459 | 98.30338 | 26 ft | 4 kts | 195° |
| 2026-05-05 07:53 | 8.10486 | 98.30345 | 26 ft | 4 kts | 194° |
| 2026-05-05 07:53 | 8.10494 | 98.30347 | 26 ft | 0 kts | 194° |
| 2026-05-05 07:55 | 8.10489 | 98.30346 | 26 ft | 3 kts | 194° |
| 2026-05-05 07:56 | 8.10458 | 98.30331 | 26 ft | 6 kts | 224° |
| 2026-05-05 07:56 | 8.10457 | 98.30281 | 29 ft | 9 kts | 305° |
| 2026-05-05 07:56 | 8.10519 | 98.30279 | 28 ft | 10 kts | 16° |
| 2026-05-05 07:56 | 8.10592 | 98.30299 | 28 ft | 12 kts | 15° |
| 2026-05-05 07:57 | 8.10648 | 98.30314 | 26 ft | 9 kts | 14° |
| 2026-05-05 07:57 | 8.10715 | 98.30331 | 26 ft | 11 kts | 14° |
| 2026-05-05 07:57 | 8.10793 | 98.30352 | 26 ft | 13 kts | 14° |
| 2026-05-05 07:57 | 8.10887 | 98.30376 | 27 ft | 15 kts | 14° |
| 2026-05-05 07:58 | 8.10990 | 98.30403 | 27 ft | 13 kts | 12° |
| 2026-05-05 07:58 | 8.11066 | 98.30356 | 27 ft | 14 kts | 335° |
| 2026-05-05 07:58 | 8.11094 | 98.30351 | 27 ft | 0 kts | 355° |
| 2026-05-05 07:59 | 8.11098 | 98.30350 | 26 ft | 1 kts | 355° |
| 2026-05-05 07:59 | 8.11114 | 98.30349 | 26 ft | 4 kts | 355° |
| 2026-05-05 07:59 | 8.11156 | 98.30345 | 26 ft | 7 kts | 355° |
| 2026-05-05 07:59 | 8.11199 | 98.30366 | 27 ft | 9 kts | 79° |
| 2026-05-05 08:00 | 8.11209 | 98.30524 | 27 ft | 52 kts | 84° |
| 2026-05-05 08:00 | 8.11267 | 98.31105 | 30 ft | 112 kts | 84° |
| 2026-05-05 08:00 | 8.11357 | 98.32047 | 62 ft | 156 kts | 84° |
| 2026-05-05 08:00 | 8.11470 | 98.33176 | 495 ft | 161 kts | 84° |
| 2026-05-05 08:01 | 8.11571 | 98.34308 | 1012 ft | 163 kts | 86° |
| 2026-05-05 08:01 | 8.11674 | 98.35446 | 1623 ft | 162 kts | 86° |
| 2026-05-05 08:01 | 8.11783 | 98.36598 | 1920 ft | 175 kts | 86° |
| 2026-05-05 08:01 | 8.11905 | 98.37886 | 2177 ft | 193 kts | 86° |
| 2026-05-05 08:02 | 8.12033 | 98.39289 | 2458 ft | 209 kts | 85° |
| 2026-05-05 08:02 | 8.12178 | 98.40809 | 2702 ft | 229 kts | 85° |
| 2026-05-05 08:02 | 8.12337 | 98.42495 | 2949 ft | 253 kts | 85° |
| 2026-05-05 08:02 | 8.12506 | 98.44301 | 3583 ft | 262 kts | 85° |
| 2026-05-05 08:03 | 8.12679 | 98.46146 | 4393 ft | 265 kts | 85° |
| 2026-05-05 08:03 | 8.12854 | 98.48002 | 5242 ft | 266 kts | 84° |
| 2026-05-05 08:03 | 8.13030 | 98.49865 | 6058 ft | 268 kts | 85° |
| 2026-05-05 08:03 | 8.13207 | 98.51747 | 6808 ft | 270 kts | 84° |
| 2026-05-05 08:04 | 8.13384 | 98.53640 | 7537 ft | 272 kts | 84° |
| 2026-05-05 08:04 | 8.13557 | 98.55552 | 8259 ft | 275 kts | 87° |
| 2026-05-05 08:04 | 8.13338 | 98.57477 | 8958 ft | 279 kts | 107° |
| 2026-05-05 08:04 | 8.12448 | 98.59225 | 9652 ft | 285 kts | 126° |
| 2026-05-05 08:05 | 8.10987 | 98.60559 | 10231 ft | 293 kts | 146° |
| 2026-05-05 08:05 | 8.09023 | 98.61330 | 10469 ft | 316 kts | 169° |
| 2026-05-05 08:05 | 8.06779 | 98.61450 | 10950 ft | 325 kts | 176° |
| 2026-05-05 08:05 | 8.04505 | 98.61518 | 11521 ft | 329 kts | 175° |
| 2026-05-05 08:06 | 8.02187 | 98.61594 | 12113 ft | 332 kts | 175° |
| 2026-05-05 08:06 | 7.99890 | 98.61675 | 12692 ft | 335 kts | 175° |
| 2026-05-05 08:06 | 7.97538 | 98.61762 | 13276 ft | 338 kts | 175° |
| 2026-05-05 08:06 | 7.95197 | 98.61851 | 13810 ft | 341 kts | 175° |
| 2026-05-05 08:07 | 7.92803 | 98.61941 | 14317 ft | 344 kts | 176° |
| 2026-05-05 08:07 | 7.90384 | 98.62030 | 14662 ft | 353 kts | 176° |
| 2026-05-05 08:07 | 7.87890 | 98.62123 | 14787 ft | 368 kts | 176° |
| 2026-05-05 08:07 | 7.85316 | 98.62217 | 15124 ft | 375 kts | 176° |
| 2026-05-05 08:08 | 7.82677 | 98.62312 | 15580 ft | 378 kts | 176° |
| 2026-05-05 08:08 | 7.80053 | 98.62405 | 16048 ft | 381 kts | 176° |
| 2026-05-05 08:08 | 7.77391 | 98.62499 | 16522 ft | 384 kts | 176° |
| 2026-05-05 08:08 | 7.74740 | 98.62799 | 16994 ft | 385 kts | 166° |
| 2026-05-05 08:09 | 7.72183 | 98.63624 | 17454 ft | 386 kts | 155° |
| 2026-05-05 08:09 | 7.69849 | 98.64931 | 17930 ft | 387 kts | 144° |
| 2026-05-05 08:09 | 7.67714 | 98.66628 | 18363 ft | 389 kts | 140° |
| 2026-05-05 08:09 | 7.65622 | 98.68356 | 18772 ft | 392 kts | 140° |
| 2026-05-05 08:10 | 7.63522 | 98.70089 | 19179 ft | 395 kts | 140° |
| 2026-05-05 08:10 | 7.61377 | 98.71854 | 19597 ft | 397 kts | 140° |
| 2026-05-05 08:10 | 7.59242 | 98.73609 | 20005 ft | 400 kts | 140° |
| 2026-05-05 08:10 | 7.57071 | 98.75394 | 20412 ft | 403 kts | 140° |
| 2026-05-05 08:11 | 7.54893 | 98.77183 | 20829 ft | 406 kts | 140° |
| 2026-05-05 08:11 | 7.52682 | 98.79001 | 21239 ft | 409 kts | 140° |
| 2026-05-05 08:11 | 7.50524 | 98.80777 | 21631 ft | 411 kts | 140° |
| 2026-05-05 08:11 | 7.48302 | 98.82605 | 22025 ft | 414 kts | 140° |
| 2026-05-05 08:12 | 7.46059 | 98.84449 | 22404 ft | 417 kts | 140° |
| 2026-05-05 08:12 | 7.43802 | 98.86300 | 22767 ft | 419 kts | 140° |
| 2026-05-05 08:12 | 7.41529 | 98.88160 | 23123 ft | 422 kts | 140° |
| 2026-05-05 08:12 | 7.39248 | 98.90025 | 23459 ft | 424 kts | 140° |
| 2026-05-05 08:13 | 7.36947 | 98.91909 | 23738 ft | 427 kts | 140° |
| 2026-05-05 08:13 | 7.34641 | 98.93801 | 24023 ft | 429 kts | 140° |
| 2026-05-05 08:13 | 7.32324 | 98.95701 | 24319 ft | 430 kts | 140° |
| 2026-05-05 08:13 | 7.29992 | 98.97610 | 24606 ft | 432 kts | 140° |
| 2026-05-05 08:14 | 7.27655 | 98.99522 | 24890 ft | 434 kts | 140° |
| 2026-05-05 08:14 | 7.25311 | 99.01442 | 25170 ft | 436 kts | 140° |
| 2026-05-05 08:14 | 7.22958 | 99.03374 | 25447 ft | 437 kts | 140° |
| 2026-05-05 08:14 | 7.20590 | 99.05314 | 25723 ft | 439 kts | 140° |
| 2026-05-05 08:15 | 7.18215 | 99.07258 | 25987 ft | 441 kts | 140° |
| 2026-05-05 08:15 | 7.15860 | 99.09184 | 26250 ft | 443 kts | 140° |
| 2026-05-05 08:15 | 7.13473 | 99.11139 | 26558 ft | 443 kts | 140° |
| 2026-05-05 08:15 | 7.11075 | 99.13104 | 26772 ft | 446 kts | 140° |
| 2026-05-05 08:16 | 7.08692 | 99.15057 | 26985 ft | 448 kts | 140° |
| 2026-05-05 08:16 | 7.06268 | 99.17043 | 27209 ft | 450 kts | 140° |
| 2026-05-05 08:16 | 7.03831 | 99.19039 | 27447 ft | 452 kts | 140° |
| 2026-05-05 08:16 | 7.01388 | 99.21036 | 27687 ft | 454 kts | 140° |
| 2026-05-05 08:17 | 6.98960 | 99.23022 | 27926 ft | 456 kts | 140° |
| 2026-05-05 08:17 | 6.96497 | 99.25033 | 28173 ft | 458 kts | 140° |
| 2026-05-05 08:17 | 6.94018 | 99.27057 | 28465 ft | 458 kts | 140° |
| 2026-05-05 08:17 | 6.91549 | 99.29071 | 28834 ft | 457 kts | 140° |
| 2026-05-05 08:18 | 6.89105 | 99.31066 | 29194 ft | 457 kts | 140° |
| 2026-05-05 08:18 | 6.86646 | 99.33078 | 29559 ft | 456 kts | 140° |
| 2026-05-05 08:18 | 6.84185 | 99.35092 | 29924 ft | 455 kts | 140° |
| 2026-05-05 08:18 | 6.81728 | 99.37103 | 30239 ft | 455 kts | 140° |
| 2026-05-05 08:19 | 6.79273 | 99.39110 | 30558 ft | 454 kts | 140° |
| 2026-05-05 08:19 | 6.76827 | 99.41110 | 30888 ft | 453 kts | 140° |
| 2026-05-05 08:19 | 6.74385 | 99.43107 | 31216 ft | 453 kts | 140° |
| 2026-05-05 08:19 | 6.71934 | 99.45113 | 31480 ft | 454 kts | 140° |
| 2026-05-05 08:20 | 6.69512 | 99.47092 | 31784 ft | 454 kts | 140° |
| 2026-05-05 08:20 | 6.67070 | 99.49085 | 32133 ft | 453 kts | 140° |
| 2026-05-05 08:20 | 6.64627 | 99.51079 | 32488 ft | 451 kts | 140° |
| 2026-05-05 08:20 | 6.62190 | 99.53066 | 32837 ft | 451 kts | 140° |
| 2026-05-05 08:21 | 6.59757 | 99.55050 | 33177 ft | 450 kts | 140° |
| 2026-05-05 08:21 | 6.57332 | 99.57030 | 33510 ft | 449 kts | 140° |
| 2026-05-05 08:21 | 6.54971 | 99.58955 | 33822 ft | 448 kts | 140° |
| 2026-05-05 08:21 | 6.52556 | 99.60927 | 34096 ft | 447 kts | 140° |
| 2026-05-05 08:22 | 6.50141 | 99.62900 | 34366 ft | 446 kts | 140° |
| 2026-05-05 08:22 | 6.47737 | 99.64864 | 34635 ft | 446 kts | 140° |
| 2026-05-05 08:22 | 6.45328 | 99.66816 | 34894 ft | 445 kts | 140° |
| 2026-05-05 08:22 | 6.42898 | 99.68745 | 35152 ft | 444 kts | 141° |
| 2026-05-05 08:23 | 6.40459 | 99.70652 | 35398 ft | 444 kts | 141° |
| 2026-05-05 08:23 | 6.38019 | 99.72548 | 35652 ft | 443 kts | 141° |
| 2026-05-05 08:23 | 6.35595 | 99.74468 | 35861 ft | 443 kts | 137° |
| 2026-05-05 08:23 | 6.33391 | 99.76631 | 36053 ft | 443 kts | 133° |
| 2026-05-05 08:24 | 6.31234 | 99.78841 | 36282 ft | 443 kts | 133° |
| 2026-05-05 08:24 | 6.29080 | 99.81047 | 36515 ft | 442 kts | 133° |
| 2026-05-05 08:24 | 6.26949 | 99.83225 | 36729 ft | 442 kts | 133° |
| 2026-05-05 08:24 | 6.24792 | 99.85432 | 36809 ft | 444 kts | 133° |
| 2026-05-05 08:25 | 6.20415 | 99.89910 | 36817 ft | 454 kts | 133° |
| 2026-05-05 08:25 | 6.15967 | 99.94451 | 36816 ft | 457 kts | 133° |
| 2026-05-05 08:26 | 6.11510 | 99.99012 | 36818 ft | 457 kts | 133° |
| 2026-05-05 08:26 | 6.07054 | 100.03573 | 36819 ft | 457 kts | 133° |
| 2026-05-05 08:27 | 6.02617 | 100.08103 | 36822 ft | 458 kts | 133° |
| 2026-05-05 08:27 | 5.98148 | 100.12674 | 36826 ft | 459 kts | 133° |
| 2026-05-05 08:28 | 5.93667 | 100.17265 | 36830 ft | 460 kts | 133° |
| 2026-05-05 08:28 | 5.89182 | 100.21838 | 36834 ft | 461 kts | 133° |
| 2026-05-05 08:29 | 5.84680 | 100.26423 | 36839 ft | 461 kts | 133° |
| 2026-05-05 08:30 | 5.77917 | 100.33318 | 36847 ft | 461 kts | 133° |
| 2026-05-05 08:30 | 5.73420 | 100.37919 | 36853 ft | 461 kts | 133° |
| 2026-05-05 08:31 | 5.68920 | 100.42511 | 36859 ft | 461 kts | 133° |
| 2026-05-05 08:31 | 5.64418 | 100.47106 | 36860 ft | 461 kts | 133° |
| 2026-05-05 08:32 | 5.59919 | 100.51688 | 36845 ft | 460 kts | 134° |
| 2026-05-05 08:32 | 5.55463 | 100.56227 | 36852 ft | 458 kts | 134° |
| 2026-05-05 08:33 | 5.51009 | 100.60777 | 36861 ft | 455 kts | 133° |
| 2026-05-05 08:33 | 5.46577 | 100.65297 | 36868 ft | 453 kts | 133° |
| 2026-05-05 08:34 | 5.42158 | 100.69789 | 36861 ft | 451 kts | 133° |
| 2026-05-05 08:34 | 5.37329 | 100.73775 | 36878 ft | 452 kts | 150° |
| 2026-05-05 08:35 | 5.31420 | 100.75884 | 36875 ft | 455 kts | 169° |
| 2026-05-05 08:35 | 5.25163 | 100.76864 | 36876 ft | 455 kts | 169° |
| 2026-05-05 08:36 | 5.18909 | 100.77851 | 36866 ft | 455 kts | 171° |
| 2026-05-05 08:36 | 5.12640 | 100.78847 | 36864 ft | 456 kts | 170° |
| 2026-05-05 08:37 | 5.07431 | 100.79679 | 36862 ft | 456 kts | 170° |
| 2026-05-05 08:37 | 5.00108 | 100.80836 | 36863 ft | 456 kts | 170° |
| 2026-05-05 08:38 | 4.94895 | 100.81657 | 36863 ft | 456 kts | 171° |
| 2026-05-05 08:38 | 4.88623 | 100.82649 | 36862 ft | 456 kts | 170° |
| 2026-05-05 08:39 | 4.82379 | 100.83638 | 36840 ft | 458 kts | 171° |
| 2026-05-05 08:39 | 4.76072 | 100.84632 | 36816 ft | 460 kts | 171° |
| 2026-05-05 08:40 | 4.69734 | 100.85625 | 36815 ft | 461 kts | 171° |
| 2026-05-05 08:40 | 4.63386 | 100.86626 | 36819 ft | 462 kts | 171° |
| 2026-05-05 08:41 | 4.57024 | 100.87639 | 36823 ft | 462 kts | 171° |
| 2026-05-05 08:41 | 4.50656 | 100.88649 | 36821 ft | 463 kts | 171° |
| 2026-05-05 08:42 | 4.44437 | 100.90158 | 36817 ft | 463 kts | 157° |
| 2026-05-05 08:42 | 4.38618 | 100.92947 | 36822 ft | 463 kts | 153° |
| 2026-05-05 08:43 | 4.32847 | 100.95763 | 36825 ft | 464 kts | 153° |
| 2026-05-05 08:43 | 4.27049 | 100.98582 | 36834 ft | 464 kts | 154° |
| 2026-05-05 08:44 | 4.21235 | 101.01406 | 36850 ft | 464 kts | 154° |
| 2026-05-05 08:44 | 4.15420 | 101.04229 | 36849 ft | 465 kts | 153° |
| 2026-05-05 08:45 | 4.09605 | 101.07069 | 36847 ft | 465 kts | 153° |
| 2026-05-05 08:45 | 4.03780 | 101.09909 | 36845 ft | 465 kts | 153° |
| 2026-05-05 08:46 | 3.97961 | 101.12741 | 36847 ft | 465 kts | 153° |
| 2026-05-05 08:46 | 3.92140 | 101.15575 | 36844 ft | 465 kts | 153° |
| 2026-05-05 08:47 | 3.86326 | 101.18405 | 36842 ft | 465 kts | 153° |
| 2026-05-05 08:47 | 3.80495 | 101.21238 | 36839 ft | 466 kts | 153° |
| 2026-05-05 08:48 | 3.74675 | 101.24091 | 36839 ft | 466 kts | 153° |
| 2026-05-05 08:48 | 3.68917 | 101.27072 | 36835 ft | 466 kts | 152° |
| 2026-05-05 08:49 | 3.63198 | 101.30108 | 36841 ft | 465 kts | 152° |
| 2026-05-05 08:49 | 3.57472 | 101.33114 | 36849 ft | 464 kts | 152° |
| 2026-05-05 08:50 | 3.51781 | 101.36063 | 36848 ft | 463 kts | 152° |
| 2026-05-05 08:50 | 3.46067 | 101.39020 | 36847 ft | 462 kts | 152° |
| 2026-05-05 08:51 | 3.40358 | 101.41985 | 36843 ft | 462 kts | 152° |
| 2026-05-05 08:51 | 3.34666 | 101.44953 | 36841 ft | 461 kts | 152° |
| 2026-05-05 08:52 | 3.28938 | 101.47848 | 36838 ft | 461 kts | 154° |
| 2026-05-05 08:52 | 3.23110 | 101.50517 | 36830 ft | 461 kts | 155° |
| 2026-05-05 08:53 | 3.17252 | 101.53141 | 36826 ft | 461 kts | 155° |
| 2026-05-05 08:53 | 3.11417 | 101.55807 | 36824 ft | 461 kts | 155° |
| 2026-05-05 08:54 | 3.05604 | 101.58497 | 36824 ft | 461 kts | 154° |
| 2026-05-05 08:54 | 2.99781 | 101.61193 | 36827 ft | 461 kts | 155° |
| 2026-05-05 08:55 | 2.93957 | 101.63879 | 36818 ft | 462 kts | 155° |
| 2026-05-05 08:55 | 2.88112 | 101.66576 | 36817 ft | 462 kts | 155° |
| 2026-05-05 08:56 | 2.82313 | 101.69251 | 36826 ft | 461 kts | 154° |
| 2026-05-05 08:56 | 2.76500 | 101.71933 | 36815 ft | 459 kts | 154° |
| 2026-05-05 08:57 | 2.70718 | 101.74607 | 36815 ft | 457 kts | 154° |
| 2026-05-05 08:57 | 2.64990 | 101.77373 | 36810 ft | 457 kts | 153° |
| 2026-05-05 08:58 | 2.59289 | 101.80193 | 36816 ft | 456 kts | 153° |
| 2026-05-05 08:58 | 2.53898 | 101.83473 | 36827 ft | 453 kts | 139° |
| 2026-05-05 08:59 | 2.49742 | 101.88190 | 36824 ft | 452 kts | 127° |
| 2026-05-05 08:59 | 2.45981 | 101.93179 | 36832 ft | 452 kts | 127° |
| 2026-05-05 09:00 | 2.42198 | 101.98206 | 36825 ft | 452 kts | 127° |
| 2026-05-05 09:00 | 2.38421 | 102.03228 | 36828 ft | 452 kts | 127° |
| 2026-05-05 09:01 | 2.34647 | 102.08243 | 36840 ft | 451 kts | 126° |
| 2026-05-05 09:01 | 2.30875 | 102.13247 | 36833 ft | 450 kts | 126° |
| 2026-05-05 09:02 | 2.27106 | 102.18252 | 36832 ft | 450 kts | 126° |
| 2026-05-05 09:02 | 2.23338 | 102.23251 | 36834 ft | 450 kts | 127° |
| 2026-05-05 09:03 | 2.19567 | 102.28250 | 36820 ft | 450 kts | 127° |
| 2026-05-05 09:03 | 2.15797 | 102.33252 | 36824 ft | 450 kts | 127° |
| 2026-05-05 09:04 | 2.12025 | 102.38257 | 36824 ft | 451 kts | 127° |
| 2026-05-05 09:04 | 2.08251 | 102.43266 | 36829 ft | 451 kts | 126° |
| 2026-05-05 09:05 | 2.04482 | 102.48269 | 36825 ft | 451 kts | 126° |
| 2026-05-05 09:05 | 2.00710 | 102.53262 | 36831 ft | 451 kts | 126° |
| 2026-05-05 09:06 | 1.96939 | 102.58269 | 36825 ft | 451 kts | 126° |
| 2026-05-05 09:06 | 1.93226 | 102.63209 | 36818 ft | 451 kts | 126° |
| 2026-05-05 09:07 | 1.89454 | 102.68214 | 36618 ft | 451 kts | 126° |
| 2026-05-05 09:07 | 1.87575 | 102.70709 | 36300 ft | 448 kts | 126° |
| 2026-05-05 09:07 | 1.85701 | 102.73196 | 35660 ft | 449 kts | 126° |
| 2026-05-05 09:07 | 1.83818 | 102.75694 | 35011 ft | 450 kts | 126° |
| 2026-05-05 09:08 | 1.81921 | 102.78212 | 34205 ft | 455 kts | 126° |
| 2026-05-05 09:08 | 1.80002 | 102.80757 | 33292 ft | 461 kts | 126° |
| 2026-05-05 09:08 | 1.78079 | 102.83309 | 32735 ft | 457 kts | 126° |
| 2026-05-05 09:08 | 1.76176 | 102.85835 | 32218 ft | 453 kts | 126° |
| 2026-05-05 09:09 | 1.74294 | 102.88344 | 31676 ft | 450 kts | 124° |
| 2026-05-05 09:09 | 1.72684 | 102.91005 | 31128 ft | 446 kts | 117° |
| 2026-05-05 09:09 | 1.71238 | 102.93741 | 30583 ft | 444 kts | 117° |
| 2026-05-05 09:09 | 1.69796 | 102.96456 | 30035 ft | 442 kts | 117° |
| 2026-05-05 09:10 | 1.68352 | 102.99163 | 29423 ft | 439 kts | 117° |
| 2026-05-05 09:10 | 1.66938 | 103.01803 | 28911 ft | 435 kts | 117° |
| 2026-05-05 09:10 | 1.65512 | 103.04459 | 28366 ft | 431 kts | 117° |
| 2026-05-05 09:10 | 1.64103 | 103.07088 | 27843 ft | 427 kts | 118° |
| 2026-05-05 09:11 | 1.62498 | 103.09576 | 27314 ft | 425 kts | 128° |
| 2026-05-05 09:11 | 1.60438 | 103.11679 | 26809 ft | 423 kts | 140° |
| 2026-05-05 09:11 | 1.58004 | 103.13309 | 26299 ft | 421 kts | 151° |
| 2026-05-05 09:11 | 1.55322 | 103.14463 | 25820 ft | 419 kts | 157° |
| 2026-05-05 09:12 | 1.52610 | 103.15534 | 25326 ft | 417 kts | 157° |
| 2026-05-05 09:12 | 1.49914 | 103.16601 | 24857 ft | 415 kts | 157° |
| 2026-05-05 09:12 | 1.47241 | 103.17663 | 24380 ft | 413 kts | 157° |
| 2026-05-05 09:12 | 1.44567 | 103.18727 | 23923 ft | 412 kts | 157° |
| 2026-05-05 09:13 | 1.41908 | 103.19788 | 23457 ft | 411 kts | 156° |
| 2026-05-05 09:13 | 1.39256 | 103.20848 | 22930 ft | 410 kts | 157° |
| 2026-05-05 09:13 | 1.36608 | 103.21903 | 22456 ft | 408 kts | 157° |
| 2026-05-05 09:13 | 1.34014 | 103.22934 | 21979 ft | 406 kts | 157° |
| 2026-05-05 09:14 | 1.31397 | 103.23975 | 21491 ft | 404 kts | 157° |
| 2026-05-05 09:14 | 1.28790 | 103.25012 | 21120 ft | 399 kts | 157° |
| 2026-05-05 09:14 | 1.26246 | 103.26023 | 21009 ft | 388 kts | 156° |
| 2026-05-05 09:14 | 1.23852 | 103.27156 | 20885 ft | 374 kts | 148° |
| 2026-05-05 09:15 | 1.21644 | 103.28442 | 20757 ft | 362 kts | 148° |
| 2026-05-05 09:15 | 1.19489 | 103.29691 | 20525 ft | 355 kts | 148° |
| 2026-05-05 09:15 | 1.17365 | 103.30920 | 20187 ft | 351 kts | 148° |
| 2026-05-05 09:15 | 1.15258 | 103.32139 | 19824 ft | 349 kts | 148° |
| 2026-05-05 09:16 | 1.13166 | 103.33350 | 19456 ft | 347 kts | 148° |
| 2026-05-05 09:16 | 1.11080 | 103.34557 | 19101 ft | 345 kts | 148° |
| 2026-05-05 09:16 | 1.09010 | 103.35753 | 18745 ft | 343 kts | 148° |
| 2026-05-05 09:16 | 1.06953 | 103.36940 | 18405 ft | 341 kts | 148° |
| 2026-05-05 09:17 | 1.04907 | 103.38121 | 18039 ft | 337 kts | 148° |
| 2026-05-05 09:17 | 1.02889 | 103.39287 | 17323 ft | 334 kts | 148° |
| 2026-05-05 09:17 | 1.00910 | 103.40433 | 16978 ft | 320 kts | 148° |
| 2026-05-05 09:17 | 0.99149 | 103.41651 | 16802 ft | 299 kts | 134° |
| 2026-05-05 09:18 | 0.97940 | 103.43256 | 16395 ft | 289 kts | 115° |
| 2026-05-05 09:18 | 0.97348 | 103.45146 | 15877 ft | 284 kts | 96° |
| 2026-05-05 09:18 | 0.97187 | 103.47105 | 15326 ft | 283 kts | 94° |
| 2026-05-05 09:18 | 0.97038 | 103.49055 | 14808 ft | 281 kts | 94° |
| 2026-05-05 09:19 | 0.96890 | 103.50992 | 14546 ft | 282 kts | 94° |
| 2026-05-05 09:19 | 0.96738 | 103.52962 | 14323 ft | 286 kts | 94° |
| 2026-05-05 09:19 | 0.96581 | 103.54953 | 14096 ft | 286 kts | 94° |
| 2026-05-05 09:19 | 0.96419 | 103.56931 | 13864 ft | 284 kts | 96° |
| 2026-05-05 09:20 | 0.95868 | 103.58819 | 13497 ft | 286 kts | 120° |
| 2026-05-05 09:20 | 0.94565 | 103.60297 | 12863 ft | 286 kts | 145° |
| 2026-05-05 09:20 | 0.92777 | 103.61083 | 12313 ft | 285 kts | 169° |
| 2026-05-05 09:20 | 0.90832 | 103.61073 | 11959 ft | 281 kts | 193° |
| 2026-05-05 09:21 | 0.89045 | 103.60281 | 11651 ft | 283 kts | 217° |
| 2026-05-05 09:21 | 0.87750 | 103.58822 | 11336 ft | 282 kts | 242° |
| 2026-05-05 09:21 | 0.87168 | 103.56969 | 11030 ft | 281 kts | 266° |
| 2026-05-05 09:21 | 0.87219 | 103.55026 | 10728 ft | 280 kts | 278° |
| 2026-05-05 09:22 | 0.87878 | 103.53221 | 10421 ft | 278 kts | 304° |
| 2026-05-05 09:22 | 0.89218 | 103.51877 | 10253 ft | 271 kts | 327° |
| 2026-05-05 09:22 | 0.90942 | 103.51156 | 10024 ft | 274 kts | 350° |
| 2026-05-05 09:22 | 0.92830 | 103.51166 | 9869 ft | 273 kts | 13° |
| 2026-05-05 09:23 | 0.94564 | 103.51920 | 9753 ft | 273 kts | 37° |
| 2026-05-05 09:23 | 0.95846 | 103.53306 | 9642 ft | 273 kts | 61° |
| 2026-05-05 09:23 | 0.96468 | 103.55088 | 9513 ft | 272 kts | 84° |
| 2026-05-05 09:23 | 0.96493 | 103.56951 | 9387 ft | 267 kts | 89° |
| 2026-05-05 09:24 | 0.96605 | 103.58780 | 9260 ft | 262 kts | 84° |
| 2026-05-05 09:24 | 0.96829 | 103.60581 | 9130 ft | 260 kts | 82° |
| 2026-05-05 09:24 | 0.97091 | 103.62348 | 9011 ft | 260 kts | 81° |
| 2026-05-05 09:24 | 0.97365 | 103.64136 | 8889 ft | 259 kts | 81° |
| 2026-05-05 09:25 | 0.97634 | 103.65916 | 8763 ft | 259 kts | 82° |
| 2026-05-05 09:25 | 0.97898 | 103.67696 | 8646 ft | 259 kts | 82° |
| 2026-05-05 09:25 | 0.98156 | 103.69472 | 8517 ft | 258 kts | 82° |
| 2026-05-05 09:25 | 0.98498 | 103.71226 | 8393 ft | 257 kts | 71° |
| 2026-05-05 09:26 | 0.99285 | 103.72823 | 8260 ft | 256 kts | 57° |
| 2026-05-05 09:26 | 1.00245 | 103.74300 | 7977 ft | 255 kts | 57° |
| 2026-05-05 09:26 | 1.01214 | 103.75799 | 7635 ft | 257 kts | 57° |
| 2026-05-05 09:26 | 1.02188 | 103.77313 | 7334 ft | 258 kts | 57° |
| 2026-05-05 09:27 | 1.03160 | 103.78826 | 7022 ft | 258 kts | 57° |
| 2026-05-05 09:27 | 1.04118 | 103.80320 | 6769 ft | 253 kts | 57° |
| 2026-05-05 09:27 | 1.05065 | 103.81797 | 6289 ft | 252 kts | 57° |
| 2026-05-05 09:27 | 1.06017 | 103.83280 | 5950 ft | 253 kts | 57° |
| 2026-05-05 09:28 | 1.06954 | 103.84736 | 5785 ft | 245 kts | 57° |
| 2026-05-05 09:28 | 1.07950 | 103.86092 | 5483 ft | 243 kts | 42° |
| 2026-05-05 09:28 | 1.09364 | 103.86974 | 5179 ft | 242 kts | 22° |
| 2026-05-05 09:28 | 1.10914 | 103.87624 | 4863 ft | 241 kts | 22° |
| 2026-05-05 09:29 | 1.12456 | 103.88271 | 4562 ft | 238 kts | 22° |
| 2026-05-05 09:29 | 1.13931 | 103.88893 | 4267 ft | 228 kts | 22° |
| 2026-05-05 09:29 | 1.15363 | 103.89498 | 3985 ft | 219 kts | 22° |
| 2026-05-05 09:29 | 1.16737 | 103.90078 | 3702 ft | 211 kts | 22° |
| 2026-05-05 09:30 | 1.17637 | 103.90458 | 3557 ft | 204 kts | 22° |
| 2026-05-05 09:30 | 1.18916 | 103.90998 | 3291 ft | 197 kts | 22° |
| 2026-05-05 09:30 | 1.20169 | 103.91527 | 3031 ft | 194 kts | 22° |
| 2026-05-05 09:30 | 1.21388 | 103.92041 | 2788 ft | 191 kts | 22° |
| 2026-05-05 09:31 | 1.22621 | 103.92562 | 2546 ft | 190 kts | 22° |
| 2026-05-05 09:31 | 1.24228 | 103.93239 | 2229 ft | 188 kts | 22° |
| 2026-05-05 09:31 | 1.25035 | 103.93574 | 2026 ft | 183 kts | 22° |
| 2026-05-05 09:31 | 1.26143 | 103.94048 | 1804 ft | 169 kts | 23° |
| 2026-05-05 09:32 | 1.27190 | 103.94485 | 1598 ft | 158 kts | 23° |
| 2026-05-05 09:32 | 1.28197 | 103.94915 | 1403 ft | 156 kts | 24° |
| 2026-05-05 09:32 | 1.29189 | 103.95329 | 1211 ft | 153 kts | 23° |
| 2026-05-05 09:32 | 1.30183 | 103.95743 | 1028 ft | 154 kts | 23° |
| 2026-05-05 09:33 | 1.31165 | 103.96162 | 831 ft | 153 kts | 24° |
| 2026-05-05 09:33 | 1.32151 | 103.96573 | 666 ft | 154 kts | 24° |
| 2026-05-05 09:33 | 1.33131 | 103.96989 | 452 ft | 155 kts | 27° |
| 2026-05-05 09:33 | 1.34110 | 103.97415 | 237 ft | 155 kts | 24° |
| 2026-05-05 09:34 | 1.35105 | 103.97832 | 39 ft | 155 kts | 26° |
| 2026-05-05 09:34 | 1.35996 | 103.98211 | 27 ft | 119 kts | 23° |
| 2026-05-05 09:34 | 1.36598 | 103.98462 | 29 ft | 69 kts | 22° |
| 2026-05-05 09:34 | 1.36941 | 103.98612 | 27 ft | 42 kts | 30° |
| 2026-05-05 09:35 | 1.37106 | 103.98787 | 27 ft | 20 kts | 53° |
| 2026-05-05 09:35 | 1.37030 | 103.98933 | 26 ft | 13 kts | 203° |
| 2026-05-05 09:35 | 1.36953 | 103.98961 | 25 ft | 15 kts | 115° |
| 2026-05-05 09:36 | 1.36908 | 103.99063 | 27 ft | 17 kts | 113° |
| 2026-05-05 09:36 | 1.36858 | 103.99181 | 25 ft | 20 kts | 113° |
| 2026-05-05 09:36 | 1.36806 | 103.99306 | 25 ft | 19 kts | 112° |
| 2026-05-05 09:36 | 1.36750 | 103.99434 | 26 ft | 21 kts | 112° |
| 2026-05-05 09:37 | 1.36698 | 103.99557 | 25 ft | 18 kts | 113° |
| 2026-05-05 09:37 | 1.36652 | 103.99663 | 25 ft | 16 kts | 113° |
| 2026-05-05 09:37 | 1.36602 | 103.99670 | 25 ft | 9 kts | 201° |
| 2026-05-05 09:37 | 1.36538 | 103.99642 | 25 ft | 12 kts | 203° |
| 2026-05-05 09:38 | 1.36450 | 103.99605 | 25 ft | 15 kts | 202° |
| 2026-05-05 09:38 | 1.36358 | 103.99544 | 25 ft | 18 kts | 232° |
| 2026-05-05 09:38 | 1.36304 | 103.99452 | 26 ft | 11 kts | 285° |
| 2026-05-05 09:38 | 1.36343 | 103.99424 | 25 ft | 5 kts | 317° |
| 2026-05-05 09:39 | 1.36358 | 103.99412 | 25 ft | 0 kts | 322° |
| 2026-05-05 09:39 | 1.36360 | 103.99410 | 25 ft | 2 kts | 322° |
| 2026-05-05 09:39 | 1.36362 | 103.99408 | 25 ft | 0 kts | 322° |